sensor_id;sensor_type;location;lat;lon;timestamp;P1;durP1;ratioP1;P2;durP2;ratioP2
69053;SDS011;56125;52.242;4.756;2023-06-04T00:04:25;3.72;;;0.88;;
69053;SDS011;56125;52.242;4.756;2023-06-04T00:09:26;1.37;;;0.70;;
69053;SDS011;56125;52.242;4.756;2023-06-04T00:14:27;1.05;;;0.73;;
69053;SDS011;56125;52.242;4.756;2023-06-04T00:19:28;1.00;;;0.80;;
69053;SDS011;56125;52.242;4.756;2023-06-04T00:24:29;0.90;;;0.70;;
69053;SDS011;56125;52.242;4.756;2023-06-04T00:29:30;0.70;;;0.70;;
69053;SDS011;56125;52.242;4.756;2023-06-04T00:34:31;0.85;;;0.70;;
69053;SDS011;56125;52.242;4.756;2023-06-04T00:39:32;1.10;;;0.80;;
69053;SDS011;56125;52.242;4.756;2023-06-04T00:44:34;0.60;;;0.60;;
69053;SDS011;56125;52.242;4.756;2023-06-04T00:49:37;1.37;;;0.80;;
69053;SDS011;56125;52.242;4.756;2023-06-04T00:54:38;1.55;;;0.70;;
69053;SDS011;56125;52.242;4.756;2023-06-04T00:59:39;1.57;;;0.80;;
69053;SDS011;56125;52.242;4.756;2023-06-04T01:04:44;0.90;;;0.70;;
69053;SDS011;56125;52.242;4.756;2023-06-04T01:09:45;1.63;;;0.80;;
69053;SDS011;56125;52.242;4.756;2023-06-04T01:14:47;2.25;;;0.90;;
69053;SDS011;56125;52.242;4.756;2023-06-04T01:24:53;0.77;;;0.75;;
69053;SDS011;56125;52.242;4.756;2023-06-04T01:29:57;1.37;;;1.03;;
69053;SDS011;56125;52.242;4.756;2023-06-04T01:35:00;1.23;;;0.70;;
69053;SDS011;56125;52.242;4.756;2023-06-04T01:40:02;0.70;;;0.70;;
69053;SDS011;56125;52.242;4.756;2023-06-04T01:45:03;1.17;;;0.80;;
69053;SDS011;56125;52.242;4.756;2023-06-04T01:50:05;1.27;;;0.90;;
69053;SDS011;56125;52.242;4.756;2023-06-04T01:55:11;1.00;;;0.85;;
69053;SDS011;56125;52.242;4.756;2023-06-04T02:00:14;0.87;;;0.70;;
69053;SDS011;56125;52.242;4.756;2023-06-04T02:05:15;1.35;;;0.70;;
69053;SDS011;56125;52.242;4.756;2023-06-04T02:10:18;0.97;;;0.70;;
69053;SDS011;56125;52.242;4.756;2023-06-04T02:15:20;1.40;;;1.00;;
69053;SDS011;56125;52.242;4.756;2023-06-04T02:20:21;1.50;;;0.73;;
69053;SDS011;56125;52.242;4.756;2023-06-04T02:25:22;1.13;;;0.77;;
69053;SDS011;56125;52.242;4.756;2023-06-04T02:30:24;1.57;;;0.80;;
69053;SDS011;56125;52.242;4.756;2023-06-04T02:35:25;0.80;;;0.75;;
69053;SDS011;56125;52.242;4.756;2023-06-04T02:40:29;1.10;;;0.70;;
69053;SDS011;56125;52.242;4.756;2023-06-04T02:45:31;0.95;;;0.70;;
69053;SDS011;56125;52.242;4.756;2023-06-04T02:50:32;0.83;;;0.60;;
69053;SDS011;56125;52.242;4.756;2023-06-04T02:55:33;0.90;;;0.77;;
69053;SDS011;56125;52.242;4.756;2023-06-04T03:00:34;0.90;;;0.60;;
69053;SDS011;56125;52.242;4.756;2023-06-04T03:05:36;0.90;;;0.75;;
69053;SDS011;56125;52.242;4.756;2023-06-04T03:10:37;1.10;;;0.93;;
69053;SDS011;56125;52.242;4.756;2023-06-04T03:15:38;0.70;;;0.70;;
69053;SDS011;56125;52.242;4.756;2023-06-04T03:20:39;1.57;;;0.60;;
69053;SDS011;56125;52.242;4.756;2023-06-04T03:25:40;1.67;;;0.80;;
69053;SDS011;56125;52.242;4.756;2023-06-04T03:30:41;0.77;;;0.60;;
69053;SDS011;56125;52.242;4.756;2023-06-04T03:35:42;2.80;;;0.82;;
69053;SDS011;56125;52.242;4.756;2023-06-04T03:40:43;2.10;;;0.87;;
69053;SDS011;56125;52.242;4.756;2023-06-04T03:45:46;1.00;;;0.80;;
69053;SDS011;56125;52.242;4.756;2023-06-04T03:50:47;1.03;;;0.83;;
69053;SDS011;56125;52.242;4.756;2023-06-04T03:55:49;0.60;;;0.60;;
69053;SDS011;56125;52.242;4.756;2023-06-04T04:00:50;1.27;;;0.77;;
69053;SDS011;56125;52.242;4.756;2023-06-04T04:05:51;1.52;;;0.70;;
69053;SDS011;56125;52.242;4.756;2023-06-04T04:10:52;0.97;;;0.70;;
69053;SDS011;56125;52.242;4.756;2023-06-04T04:15:53;1.42;;;0.70;;
69053;SDS011;56125;52.242;4.756;2023-06-04T04:20:54;1.00;;;0.83;;
69053;SDS011;56125;52.242;4.756;2023-06-04T04:25:57;1.13;;;0.88;;
69053;SDS011;56125;52.242;4.756;2023-06-04T04:30:59;0.97;;;0.87;;
69053;SDS011;56125;52.242;4.756;2023-06-04T04:36:02;1.80;;;0.80;;
69053;SDS011;56125;52.242;4.756;2023-06-04T04:41:03;1.90;;;0.90;;
69053;SDS011;56125;52.242;4.756;2023-06-04T04:46:05;1.00;;;0.77;;
69053;SDS011;56125;52.242;4.756;2023-06-04T04:51:06;1.60;;;0.70;;
69053;SDS011;56125;52.242;4.756;2023-06-04T04:56:07;1.58;;;0.82;;
69053;SDS011;56125;52.242;4.756;2023-06-04T05:01:08;1.00;;;0.70;;
69053;SDS011;56125;52.242;4.756;2023-06-04T05:06:10;1.27;;;0.80;;
69053;SDS011;56125;52.242;4.756;2023-06-04T05:11:11;1.77;;;0.80;;
69053;SDS011;56125;52.242;4.756;2023-06-04T05:16:12;2.28;;;0.90;;
69053;SDS011;56125;52.242;4.756;2023-06-04T05:21:13;1.80;;;0.80;;
69053;SDS011;56125;52.242;4.756;2023-06-04T05:26:14;1.88;;;0.80;;
69053;SDS011;56125;52.242;4.756;2023-06-04T05:31:16;1.40;;;0.80;;
69053;SDS011;56125;52.242;4.756;2023-06-04T05:36:19;1.27;;;0.80;;
69053;SDS011;56125;52.242;4.756;2023-06-04T05:41:20;2.17;;;0.80;;
69053;SDS011;56125;52.242;4.756;2023-06-04T05:46:24;2.17;;;0.90;;
69053;SDS011;56125;52.242;4.756;2023-06-04T05:51:25;2.30;;;0.80;;
69053;SDS011;56125;52.242;4.756;2023-06-04T05:56:26;1.02;;;0.70;;
69053;SDS011;56125;52.242;4.756;2023-06-04T06:01:27;1.97;;;1.00;;
69053;SDS011;56125;52.242;4.756;2023-06-04T06:06:28;1.25;;;0.80;;
69053;SDS011;56125;52.242;4.756;2023-06-04T06:11:29;1.67;;;0.73;;
69053;SDS011;56125;52.242;4.756;2023-06-04T06:16:30;1.40;;;0.70;;
69053;SDS011;56125;52.242;4.756;2023-06-04T06:21:32;1.40;;;0.80;;
69053;SDS011;56125;52.242;4.756;2023-06-04T06:26:33;2.03;;;0.77;;
69053;SDS011;56125;52.242;4.756;2023-06-04T06:31:34;1.77;;;0.90;;
69053;SDS011;56125;52.242;4.756;2023-06-04T06:36:35;2.97;;;1.10;;
69053;SDS011;56125;52.242;4.756;2023-06-04T06:41:37;1.10;;;0.70;;
69053;SDS011;56125;52.242;4.756;2023-06-04T06:46:39;1.15;;;0.70;;
69053;SDS011;56125;52.242;4.756;2023-06-04T06:51:40;1.00;;;0.70;;
69053;SDS011;56125;52.242;4.756;2023-06-04T06:56:41;1.17;;;0.70;;
69053;SDS011;56125;52.242;4.756;2023-06-04T07:01:42;1.90;;;0.70;;
69053;SDS011;56125;52.242;4.756;2023-06-04T07:06:43;1.25;;;0.80;;
69053;SDS011;56125;52.242;4.756;2023-06-04T07:11:44;1.20;;;0.67;;
69053;SDS011;56125;52.242;4.756;2023-06-04T07:16:45;3.40;;;0.90;;
69053;SDS011;56125;52.242;4.756;2023-06-04T07:21:46;1.40;;;0.70;;
69053;SDS011;56125;52.242;4.756;2023-06-04T07:26:47;1.42;;;0.63;;
69053;SDS011;56125;52.242;4.756;2023-06-04T07:31:48;1.40;;;0.60;;
69053;SDS011;56125;52.242;4.756;2023-06-04T07:36:50;1.15;;;0.60;;
69053;SDS011;56125;52.242;4.756;2023-06-04T07:41:51;1.27;;;0.70;;
69053;SDS011;56125;52.242;4.756;2023-06-04T07:46:52;0.90;;;0.70;;
69053;SDS011;56125;52.242;4.756;2023-06-04T07:51:53;0.97;;;0.70;;
69053;SDS011;56125;52.242;4.756;2023-06-04T07:56:54;1.88;;;0.73;;
69053;SDS011;56125;52.242;4.756;2023-06-04T08:01:56;0.87;;;0.70;;
69053;SDS011;56125;52.242;4.756;2023-06-04T08:06:57;1.10;;;0.70;;
69053;SDS011;56125;52.242;4.756;2023-06-04T08:11:59;1.23;;;0.70;;
69053;SDS011;56125;52.242;4.756;2023-06-04T08:17:00;1.25;;;0.73;;
69053;SDS011;56125;52.242;4.756;2023-06-04T08:22:01;1.40;;;0.70;;
69053;SDS011;56125;52.242;4.756;2023-06-04T08:27:02;1.85;;;0.73;;
69053;SDS011;56125;52.242;4.756;2023-06-04T08:32:04;1.50;;;0.77;;
69053;SDS011;56125;52.242;4.756;2023-06-04T08:37:05;1.65;;;0.80;;
69053;SDS011;56125;52.242;4.756;2023-06-04T08:42:07;1.13;;;0.70;;
69053;SDS011;56125;52.242;4.756;2023-06-04T08:47:22;1.70;;;0.70;;
69053;SDS011;56125;52.242;4.756;2023-06-04T08:52:27;1.57;;;0.90;;
69053;SDS011;56125;52.242;4.756;2023-06-04T08:57:30;1.40;;;0.60;;
69053;SDS011;56125;52.242;4.756;2023-06-04T09:02:32;1.60;;;0.70;;
69053;SDS011;56125;52.242;4.756;2023-06-04T09:07:38;1.95;;;0.85;;
69053;SDS011;56125;52.242;4.756;2023-06-04T09:12:43;1.70;;;0.90;;
69053;SDS011;56125;52.242;4.756;2023-06-04T09:17:46;1.25;;;0.65;;
69053;SDS011;56125;52.242;4.756;2023-06-04T09:22:47;1.97;;;0.70;;
69053;SDS011;56125;52.242;4.756;2023-06-04T09:27:49;1.10;;;0.70;;
69053;SDS011;56125;52.242;4.756;2023-06-04T09:32:50;1.67;;;0.67;;
69053;SDS011;56125;52.242;4.756;2023-06-04T09:37:56;1.95;;;0.80;;
69053;SDS011;56125;52.242;4.756;2023-06-04T09:42:57;1.43;;;0.83;;
69053;SDS011;56125;52.242;4.756;2023-06-04T09:47:59;1.98;;;0.90;;
69053;SDS011;56125;52.242;4.756;2023-06-04T09:53:01;1.57;;;0.80;;
69053;SDS011;56125;52.242;4.756;2023-06-04T09:58:03;1.33;;;0.80;;
69053;SDS011;56125;52.242;4.756;2023-06-04T10:03:05;1.10;;;0.80;;
69053;SDS011;56125;52.242;4.756;2023-06-04T10:08:07;1.38;;;0.73;;
69053;SDS011;56125;52.242;4.756;2023-06-04T10:13:17;2.03;;;0.80;;
69053;SDS011;56125;52.242;4.756;2023-06-04T10:18:19;1.48;;;0.77;;
69053;SDS011;56125;52.242;4.756;2023-06-04T10:23:21;2.27;;;0.83;;
69053;SDS011;56125;52.242;4.756;2023-06-04T10:28:23;3.10;;;0.90;;
69053;SDS011;56125;52.242;4.756;2023-06-04T10:33:24;1.70;;;0.80;;
69053;SDS011;56125;52.242;4.756;2023-06-04T10:38:25;1.23;;;0.90;;
69053;SDS011;56125;52.242;4.756;2023-06-04T10:43:29;1.90;;;0.90;;
69053;SDS011;56125;52.242;4.756;2023-06-04T10:48:31;1.83;;;0.80;;
69053;SDS011;56125;52.242;4.756;2023-06-04T10:53:36;1.63;;;0.87;;
69053;SDS011;56125;52.242;4.756;2023-06-04T10:58:37;1.35;;;0.70;;
69053;SDS011;56125;52.242;4.756;2023-06-04T11:03:38;0.90;;;0.80;;
69053;SDS011;56125;52.242;4.756;2023-06-04T11:08:39;3.35;;;0.80;;
69053;SDS011;56125;52.242;4.756;2023-06-04T11:13:41;2.70;;;0.90;;
69053;SDS011;56125;52.242;4.756;2023-06-04T11:18:43;1.52;;;0.68;;
69053;SDS011;56125;52.242;4.756;2023-06-04T11:23:44;1.77;;;0.80;;
69053;SDS011;56125;52.242;4.756;2023-06-04T11:28:48;0.85;;;0.60;;
69053;SDS011;56125;52.242;4.756;2023-06-04T11:33:49;1.47;;;0.70;;
69053;SDS011;56125;52.242;4.756;2023-06-04T11:38:57;0.93;;;0.80;;
69053;SDS011;56125;52.242;4.756;2023-06-04T11:44:03;1.00;;;0.80;;
69053;SDS011;56125;52.242;4.756;2023-06-04T11:49:06;1.52;;;0.90;;
69053;SDS011;56125;52.242;4.756;2023-06-04T11:54:07;1.23;;;0.80;;
69053;SDS011;56125;52.242;4.756;2023-06-04T11:59:08;0.80;;;0.80;;
69053;SDS011;56125;52.242;4.756;2023-06-04T12:04:14;1.97;;;0.60;;
69053;SDS011;56125;52.242;4.756;2023-06-04T12:09:20;1.20;;;0.70;;
69053;SDS011;56125;52.242;4.756;2023-06-04T12:14:22;2.20;;;0.70;;
69053;SDS011;56125;52.242;4.756;2023-06-04T12:19:23;1.13;;;0.70;;
69053;SDS011;56125;52.242;4.756;2023-06-04T12:24:24;1.00;;;0.70;;
69053;SDS011;56125;52.242;4.756;2023-06-04T12:29:25;2.42;;;0.80;;
69053;SDS011;56125;52.242;4.756;2023-06-04T12:34:27;2.83;;;1.00;;
69053;SDS011;56125;52.242;4.756;2023-06-04T12:39:28;1.00;;;0.70;;
69053;SDS011;56125;52.242;4.756;2023-06-04T12:44:30;0.80;;;0.70;;
69053;SDS011;56125;52.242;4.756;2023-06-04T12:49:31;1.30;;;0.80;;
69053;SDS011;56125;52.242;4.756;2023-06-04T12:54:32;1.97;;;0.90;;
69053;SDS011;56125;52.242;4.756;2023-06-04T12:59:33;1.30;;;0.70;;
69053;SDS011;56125;52.242;4.756;2023-06-04T13:04:34;2.53;;;0.70;;
69053;SDS011;56125;52.242;4.756;2023-06-04T13:09:35;1.42;;;0.80;;
69053;SDS011;56125;52.242;4.756;2023-06-04T13:14:36;1.10;;;0.70;;
69053;SDS011;56125;52.242;4.756;2023-06-04T13:19:37;2.88;;;1.00;;
69053;SDS011;56125;52.242;4.756;2023-06-04T13:24:38;1.60;;;0.80;;
69053;SDS011;56125;52.242;4.756;2023-06-04T13:29:40;1.45;;;0.80;;
69053;SDS011;56125;52.242;4.756;2023-06-04T13:34:41;3.77;;;0.93;;
69053;SDS011;56125;52.242;4.756;2023-06-04T13:39:42;1.92;;;0.80;;
69053;SDS011;56125;52.242;4.756;2023-06-04T13:44:43;2.30;;;1.00;;
69053;SDS011;56125;52.242;4.756;2023-06-04T13:49:44;1.00;;;0.77;;
69053;SDS011;56125;52.242;4.756;2023-06-04T13:54:45;1.30;;;0.80;;
69053;SDS011;56125;52.242;4.756;2023-06-04T13:59:46;1.50;;;0.90;;
69053;SDS011;56125;52.242;4.756;2023-06-04T14:04:49;2.20;;;1.00;;
69053;SDS011;56125;52.242;4.756;2023-06-04T14:09:51;1.33;;;0.90;;
69053;SDS011;56125;52.242;4.756;2023-06-04T14:14:54;1.30;;;0.80;;
69053;SDS011;56125;52.242;4.756;2023-06-04T14:19:56;2.70;;;1.00;;
69053;SDS011;56125;52.242;4.756;2023-06-04T14:24:56;2.07;;;0.90;;
69053;SDS011;56125;52.242;4.756;2023-06-04T14:29:58;2.03;;;0.90;;
69053;SDS011;56125;52.242;4.756;2023-06-04T14:34:59;1.93;;;1.00;;
69053;SDS011;56125;52.242;4.756;2023-06-04T14:40:00;1.33;;;0.90;;
69053;SDS011;56125;52.242;4.756;2023-06-04T14:45:01;1.60;;;0.93;;
69053;SDS011;56125;52.242;4.756;2023-06-04T14:50:02;2.47;;;0.93;;
69053;SDS011;56125;52.242;4.756;2023-06-04T14:55:04;1.40;;;0.90;;
69053;SDS011;56125;52.242;4.756;2023-06-04T15:00:06;1.55;;;0.90;;
69053;SDS011;56125;52.242;4.756;2023-06-04T15:05:07;2.13;;;1.13;;
69053;SDS011;56125;52.242;4.756;2023-06-04T15:10:08;2.30;;;1.10;;
69053;SDS011;56125;52.242;4.756;2023-06-04T15:15:10;2.23;;;0.90;;
69053;SDS011;56125;52.242;4.756;2023-06-04T15:20:11;3.72;;;1.20;;
69053;SDS011;56125;52.242;4.756;2023-06-04T15:25:12;1.00;;;0.90;;
69053;SDS011;56125;52.242;4.756;2023-06-04T15:30:13;2.58;;;1.05;;
69053;SDS011;56125;52.242;4.756;2023-06-04T15:35:14;1.40;;;1.00;;
69053;SDS011;56125;52.242;4.756;2023-06-04T15:40:15;3.00;;;1.30;;
69053;SDS011;56125;52.242;4.756;2023-06-04T15:45:16;6.53;;;2.30;;
69053;SDS011;56125;52.242;4.756;2023-06-04T15:50:20;4.13;;;2.00;;
69053;SDS011;56125;52.242;4.756;2023-06-04T15:55:21;6.77;;;1.77;;
69053;SDS011;56125;52.242;4.756;2023-06-04T16:00:22;3.25;;;1.67;;
69053;SDS011;56125;52.242;4.756;2023-06-04T16:05:23;5.00;;;1.40;;
69053;SDS011;56125;52.242;4.756;2023-06-04T16:10:24;6.65;;;1.52;;
69053;SDS011;56125;52.242;4.756;2023-06-04T16:15:25;3.53;;;1.40;;
69053;SDS011;56125;52.242;4.756;2023-06-04T16:20:26;3.13;;;1.60;;
69053;SDS011;56125;52.242;4.756;2023-06-04T16:25:27;4.07;;;1.30;;
69053;SDS011;56125;52.242;4.756;2023-06-04T16:30:29;1.80;;;1.30;;
69053;SDS011;56125;52.242;4.756;2023-06-04T16:35:30;2.50;;;1.10;;
69053;SDS011;56125;52.242;4.756;2023-06-04T16:40:32;3.63;;;1.65;;
69053;SDS011;56125;52.242;4.756;2023-06-04T16:45:33;2.70;;;1.40;;
69053;SDS011;56125;52.242;4.756;2023-06-04T16:50:34;5.72;;;1.40;;
69053;SDS011;56125;52.242;4.756;2023-06-04T16:55:35;2.50;;;1.40;;
69053;SDS011;56125;52.242;4.756;2023-06-04T17:00:38;3.33;;;1.10;;
69053;SDS011;56125;52.242;4.756;2023-06-04T17:05:39;2.10;;;1.10;;
69053;SDS011;56125;52.242;4.756;2023-06-04T17:10:40;2.50;;;1.30;;
69053;SDS011;56125;52.242;4.756;2023-06-04T17:15:42;4.60;;;1.40;;
69053;SDS011;56125;52.242;4.756;2023-06-04T17:20:43;3.55;;;1.40;;
69053;SDS011;56125;52.242;4.756;2023-06-04T17:25:44;2.53;;;1.20;;
69053;SDS011;56125;52.242;4.756;2023-06-04T17:30:45;3.45;;;1.30;;
69053;SDS011;56125;52.242;4.756;2023-06-04T17:35:46;3.47;;;1.20;;
69053;SDS011;56125;52.242;4.756;2023-06-04T17:40:47;2.97;;;1.30;;
69053;SDS011;56125;52.242;4.756;2023-06-04T17:45:48;2.93;;;1.20;;
69053;SDS011;56125;52.242;4.756;2023-06-04T17:50:49;3.60;;;1.10;;
69053;SDS011;56125;52.242;4.756;2023-06-04T17:55:50;3.43;;;1.17;;
69053;SDS011;56125;52.242;4.756;2023-06-04T18:00:51;2.00;;;1.02;;
69053;SDS011;56125;52.242;4.756;2023-06-04T18:05:52;2.03;;;1.20;;
69053;SDS011;56125;52.242;4.756;2023-06-04T18:10:53;2.78;;;1.20;;
69053;SDS011;56125;52.242;4.756;2023-06-04T18:15:56;2.20;;;1.07;;
69053;SDS011;56125;52.242;4.756;2023-06-04T18:20:57;2.00;;;1.02;;
69053;SDS011;56125;52.242;4.756;2023-06-04T18:25:58;1.30;;;0.90;;
69053;SDS011;56125;52.242;4.756;2023-06-04T18:30:59;1.58;;;1.08;;
69053;SDS011;56125;52.242;4.756;2023-06-04T18:36:00;1.83;;;1.10;;
69053;SDS011;56125;52.242;4.756;2023-06-04T18:41:01;5.28;;;1.40;;
69053;SDS011;56125;52.242;4.756;2023-06-04T18:46:02;1.83;;;1.20;;
69053;SDS011;56125;52.242;4.756;2023-06-04T18:51:03;3.30;;;1.35;;
69053;SDS011;56125;52.242;4.756;2023-06-04T18:56:05;3.27;;;1.70;;
69053;SDS011;56125;52.242;4.756;2023-06-04T19:01:06;3.15;;;1.60;;
69053;SDS011;56125;52.242;4.756;2023-06-04T19:06:07;2.13;;;1.37;;
69053;SDS011;56125;52.242;4.756;2023-06-04T19:11:08;3.70;;;1.40;;
69053;SDS011;56125;52.242;4.756;2023-06-04T19:16:12;4.73;;;1.50;;
69053;SDS011;56125;52.242;4.756;2023-06-04T19:21:13;3.72;;;1.75;;
69053;SDS011;56125;52.242;4.756;2023-06-04T19:26:15;3.07;;;1.60;;
69053;SDS011;56125;52.242;4.756;2023-06-04T19:31:16;5.53;;;1.70;;
69053;SDS011;56125;52.242;4.756;2023-06-04T19:36:17;3.63;;;1.37;;
69053;SDS011;56125;52.242;4.756;2023-06-04T19:41:18;3.38;;;1.50;;
69053;SDS011;56125;52.242;4.756;2023-06-04T19:46:19;2.83;;;1.20;;
69053;SDS011;56125;52.242;4.756;2023-06-04T19:51:20;2.97;;;1.50;;
69053;SDS011;56125;52.242;4.756;2023-06-04T19:56:21;2.70;;;1.43;;
69053;SDS011;56125;52.242;4.756;2023-06-04T20:01:22;3.42;;;1.38;;
69053;SDS011;56125;52.242;4.756;2023-06-04T20:06:23;3.03;;;1.33;;
69053;SDS011;56125;52.242;4.756;2023-06-04T20:11:24;2.55;;;1.50;;
69053;SDS011;56125;52.242;4.756;2023-06-04T20:16:26;1.47;;;1.10;;
69053;SDS011;56125;52.242;4.756;2023-06-04T20:21:28;2.63;;;1.38;;
69053;SDS011;56125;52.242;4.756;2023-06-04T20:26:29;2.83;;;1.27;;
69053;SDS011;56125;52.242;4.756;2023-06-04T20:31:33;1.63;;;1.13;;
69053;SDS011;56125;52.242;4.756;2023-06-04T20:36:34;1.80;;;1.10;;
69053;SDS011;56125;52.242;4.756;2023-06-04T20:41:37;1.85;;;1.40;;
69053;SDS011;56125;52.242;4.756;2023-06-04T20:46:38;1.30;;;1.20;;
69053;SDS011;56125;52.242;4.756;2023-06-04T20:51:39;2.40;;;1.58;;
69053;SDS011;56125;52.242;4.756;2023-06-04T20:56:42;1.97;;;1.17;;
69053;SDS011;56125;52.242;4.756;2023-06-04T21:01:43;2.08;;;1.15;;
69053;SDS011;56125;52.242;4.756;2023-06-04T21:06:44;1.80;;;1.20;;
69053;SDS011;56125;52.242;4.756;2023-06-04T21:11:46;1.30;;;1.08;;
69053;SDS011;56125;52.242;4.756;2023-06-04T21:16:47;2.27;;;1.20;;
69053;SDS011;56125;52.242;4.756;2023-06-04T21:21:48;1.95;;;1.27;;
69053;SDS011;56125;52.242;4.756;2023-06-04T21:26:49;1.50;;;1.27;;
69053;SDS011;56125;52.242;4.756;2023-06-04T21:31:50;2.03;;;1.40;;
69053;SDS011;56125;52.242;4.756;2023-06-04T21:36:51;1.97;;;1.30;;
69053;SDS011;56125;52.242;4.756;2023-06-04T21:41:52;2.45;;;1.27;;
69053;SDS011;56125;52.242;4.756;2023-06-04T21:46:53;3.23;;;1.27;;
69053;SDS011;56125;52.242;4.756;2023-06-04T21:51:54;1.80;;;1.10;;
69053;SDS011;56125;52.242;4.756;2023-06-04T21:56:55;3.23;;;1.30;;
69053;SDS011;56125;52.242;4.756;2023-06-04T22:01:56;2.45;;;1.38;;
69053;SDS011;56125;52.242;4.756;2023-06-04T22:06:58;2.03;;;1.37;;
69053;SDS011;56125;52.242;4.756;2023-06-04T22:11:59;2.65;;;1.20;;
69053;SDS011;56125;52.242;4.756;2023-06-04T22:17:00;3.00;;;1.33;;
69053;SDS011;56125;52.242;4.756;2023-06-04T22:22:01;1.30;;;1.20;;
69053;SDS011;56125;52.242;4.756;2023-06-04T22:27:02;2.93;;;1.40;;
69053;SDS011;56125;52.242;4.756;2023-06-04T22:32:04;2.10;;;1.20;;
69053;SDS011;56125;52.242;4.756;2023-06-04T22:37:05;2.03;;;1.57;;
69053;SDS011;56125;52.242;4.756;2023-06-04T22:42:06;2.42;;;1.15;;
69053;SDS011;56125;52.242;4.756;2023-06-04T22:47:07;2.60;;;1.40;;
69053;SDS011;56125;52.242;4.756;2023-06-04T22:52:08;2.55;;;1.13;;
69053;SDS011;56125;52.242;4.756;2023-06-04T22:57:09;1.90;;;1.43;;
69053;SDS011;56125;52.242;4.756;2023-06-04T23:02:10;2.85;;;1.20;;
69053;SDS011;56125;52.242;4.756;2023-06-04T23:07:11;2.90;;;1.10;;
69053;SDS011;56125;52.242;4.756;2023-06-04T23:12:13;2.20;;;1.50;;
69053;SDS011;56125;52.242;4.756;2023-06-04T23:17:14;2.07;;;1.27;;
69053;SDS011;56125;52.242;4.756;2023-06-04T23:22:15;2.00;;;1.42;;
69053;SDS011;56125;52.242;4.756;2023-06-04T23:27:16;2.10;;;1.27;;
69053;SDS011;56125;52.242;4.756;2023-06-04T23:32:17;1.52;;;1.38;;
69053;SDS011;56125;52.242;4.756;2023-06-04T23:37:18;2.63;;;1.27;;
69053;SDS011;56125;52.242;4.756;2023-06-04T23:42:19;1.98;;;1.40;;
69053;SDS011;56125;52.242;4.756;2023-06-04T23:47:20;2.27;;;1.37;;
69053;SDS011;56125;52.242;4.756;2023-06-04T23:52:21;1.83;;;1.40;;
69053;SDS011;56125;52.242;4.756;2023-06-04T23:57:22;2.60;;;1.60;;
